AKDT,Max TemperatureF,Mean TemperatureF,Min TemperatureF,Max Dew PointF,MeanDew PointF,Min DewpointF,Max Humidity, Mean Humidity, Min Humidity, Max Sea Level PressureIn, Mean Sea Level PressureIn, Min Sea Level PressureIn, Max VisibilityMiles, Mean VisibilityMiles, Min VisibilityMiles, Max Wind SpeedMPH, Mean Wind SpeedMPH, Max Gust SpeedMPH,PrecipitationIn, CloudCover, Events, WindDirDegrees
2012-9-1,57,50,44,47,43,39,90,79,62,29.64,29.54,29.49,10,10,9,5,0,,0.07,7,Rain,125
2012-9-2,63,50,39,45,39,34,97,70,35,29.76,29.72,29.62,10,10,10,7,2,,0.01,5,Fog-Rain,255
2012-9-3,55,47,39,43,38,33,89,68,48,29.73,29.67,29.60,10,10,10,7,2,,0.00,6,Rain,173
2012-9-4,63,50,37,43,35,28,93,58,29,29.91,29.81,29.65,10,10,10,15,3,20,0.00,4,,227
2012-9-5,66,52,37,39,35,28,93,60,30,29.72,29.66,29.59,10,10,10,8,2,16,0.00,5,,273
2012-9-6,57,48,39,34,31,26,76,53,33,30.09,29.94,29.76,10,10,10,12,4,18,0.00,6,,261
2012-9-7,55,46,37,39,33,27,93,67,34,30.12,29.99,29.84,10,10,4,7,2,,0.08,7,Rain,80
2012-9-8,46,42,37,40,38,36,100,85,66,29.87,29.80,29.67,10,10,9,8,2,,0.11,8,Rain,356
2012-9-9,45,40,35,35,32,27,89,75,53,29.84,29.70,29.61,10,10,10,17,11,26,0.00,8,,323
2012-9-10,44,36,28,30,28,25,88,70,51,29.98,29.92,29.83,10,10,10,12,7,18,0.00,6,,306
2012-9-11,50,36,23,28,24,21,96,67,33,30.03,29.97,29.87,10,10,10,9,3,,0.00,3,,125
2012-9-12,48,36,25,32,26,22,88,63,39,29.87,29.78,29.72,10,10,10,9,4,,0.00,4,,155
2012-9-13,53,40,30,34,32,30,96,74,50,29.86,29.83,29.79,10,10,10,9,2,,0.00,5,,309
2012-9-14,50,38,26,35,31,25,96,80,54,29.92,29.87,29.81,10,10,10,7,3,,0.00,4,Fog,126
2012-9-15,55,42,30,36,32,29,96,69,42,29.99,29.93,29.84,10,10,10,9,2,,0.00,6,,111
2012-9-16,70,52,36,40,37,34,97,61,30,29.83,29.61,29.37,10,10,10,22,5,31,0.00,5,Rain,136
2012-9-17,60,48,35,37,25,19,74,44,20,29.93,29.76,29.60,10,10,10,13,5,20,0.00,2,Rain,247
2012-9-18,57,42,28,31,26,23,82,58,29,29.96,29.90,29.83,10,10,10,9,2,,0.00,6,,132
2012-9-19,60,48,37,37,32,28,86,60,38,29.93,29.78,29.63,10,10,10,8,4,16,0.00,5,,144
2012-9-20,70,53,36,44,39,33,89,66,35,29.83,29.75,29.67,10,10,10,6,2,,0.00,3,Rain,191
2012-9-21,69,54,39,44,41,37,96,70,36,29.87,29.80,29.68,10,10,10,7,1,,0.00,3,,96
2012-9-22,66,50,33,44,40,33,100,72,40,29.79,29.63,29.46,10,10,10,9,3,,0.00,4,,93
2012-9-23,64,50,37,42,37,29,96,65,29,29.71,29.57,29.46,10,10,10,10,3,22,0.00,4,Rain,106
2012-9-24,57,46,32,38,35,30,92,70,39,29.96,29.90,29.73,10,10,10,10,3,18,0.00,5,,321
2012-9-25,55,42,28,34,30,26,96,69,35,29.95,29.72,29.44,10,10,10,13,2,,0.00,5,,111
2012-9-26,60,44,30,34,28,19,92,58,23,29.53,29.39,29.08,10,10,10,12,4,,0.00,4,,121
2012-9-27,50,40,33,37,33,26,100,77,48,29.18,29.04,28.89,10,10,6,7,4,,0.05,5,Rain,129
2012-9-28,52,42,30,31,28,26,89,61,39,29.50,29.32,29.18,10,10,10,12,5,,0.00,5,,127
2012-9-29,46,36,27,32,28,25,96,77,51,29.85,29.66,29.51,10,10,10,5,1,,0.00,6,,240
2012-9-30,41,34,28,28,26,24,85,74,55,30.05,29.99,29.86,10,10,10,9,4,,0.00,6,,318